Time;durP1;ratioP1;P1;durP2;ratioP2;P2;SDS_P1;SDS_P2;PMS_P1;PMS_P2;Temp;Humidity;BMP_temperature;BMP_pressure;BME280_temperature;BME280_humidity;BME280_pressure;Samples;Min_cycle;Max_cycle;Signal;HPM_P1;HPM_P2
2022/11/16 00:01:07;;;;;;;8.80;4.33;;;;;;;14.53;62.65;96201.19;5016471;28;20427;-71
2022/11/16 00:03:33;;;;;;;6.50;4.63;;;;;;;14.55;62.89;96205.22;5025851;28;20187;-70
2022/11/16 00:06:00;;;;;;;4.53;3.73;;;;;;;14.53;62.76;96209.88;5015804;28;20458;-71
2022/11/16 00:08:29;;;;;;;6.30;4.10;;;;;;;14.55;62.70;96210.50;4999766;28;20419;-72
2022/11/16 00:10:54;;;;;;;6.30;4.30;;;;;;;14.53;62.60;96219.63;5032928;28;20418;-70
2022/11/16 00:13:20;;;;;;;5.60;3.83;;;;;;;14.53;62.96;96209.09;5033966;28;20426;-71
2022/11/16 00:15:55;;;;;;;5.47;4.20;;;;;;;14.48;62.70;96214.97;5037170;28;20207;-71
2022/11/16 00:18:21;;;;;;;7.90;4.17;;;;;;;14.41;63.03;96214.97;5031282;28;20203;-73
2022/11/16 00:20:47;;;;;;;4.13;3.63;;;;;;;14.39;62.67;96205.63;5031139;28;20426;-71
2022/11/16 00:23:13;;;;;;;4.63;3.60;;;;;;;14.36;62.77;96201.56;5030996;28;20445;-71
2022/11/16 00:25:38;;;;;;;4.47;3.70;;;;;;;14.38;62.19;96198.72;5031174;28;20446;-71
2022/11/16 00:28:04;;;;;;;5.00;3.60;;;;;;;14.40;62.04;96191.41;5029780;28;20241;-69
2022/11/16 00:30:29;;;;;;;3.73;3.23;;;;;;;14.37;61.90;96197.09;5032228;28;20660;-70
2022/11/16 00:32:59;;;;;;;9.90;4.33;;;;;;;14.38;62.03;96189.00;5032502;28;20219;-70
2022/11/16 00:35:24;;;;;;;4.83;4.10;;;;;;;14.36;62.44;96183.13;5014350;28;20631;-70
2022/11/16 00:37:50;;;;;;;5.37;3.73;;;;;;;14.34;62.87;96186.97;5030647;28;20496;-70
2022/11/16 00:40:16;;;;;;;7.97;4.30;;;;;;;14.32;62.75;96181.88;5031938;28;20184;-71
2022/11/16 00:42:42;;;;;;;6.10;3.90;;;;;;;14.34;63.13;96194.88;5037760;28;20813;-71
2022/11/16 00:45:08;;;;;;;4.50;4.00;;;;;;;14.28;62.99;96183.31;5020367;28;20628;-70
2022/11/16 00:47:33;;;;;;;6.27;4.03;;;;;;;14.26;62.73;96188.78;5039303;28;20593;-71
2022/11/16 00:49:59;;;;;;;6.07;4.13;;;;;;;14.24;62.53;96177.59;5034502;28;20422;-69
2022/11/16 00:52:24;;;;;;;4.93;3.57;;;;;;;14.26;62.85;96180.06;5030024;28;20192;-70
2022/11/16 00:54:50;;;;;;;6.07;4.17;;;;;;;14.13;63.01;96176.41;5031870;28;20212;-70
2022/11/16 00:57:15;;;;;;;5.53;4.00;;;;;;;14.19;63.48;96176.59;5028826;28;20184;-70
2022/11/16 00:59:40;;;;;;;7.20;4.33;;;;;;;14.20;63.58;96178.22;5031782;28;20211;-70
2022/11/16 01:02:06;;;;;;;9.37;4.43;;;;;;;14.20;63.61;96172.94;5031319;28;20255;-70
2022/11/16 01:04:32;;;;;;;4.97;4.47;;;;;;;14.23;63.53;96165.47;5031417;28;20285;-70
2022/11/16 01:06:57;;;;;;;5.60;4.10;;;;;;;14.22;64.13;96168.28;5030640;28;20651;-70
2022/11/16 01:09:23;;;;;;;5.30;4.30;;;;;;;14.07;64.50;96168.47;5031188;28;20188;-70
2022/11/16 01:14:32;;;;;;;5.33;4.10;;;;;;;14.13;64.39;96167.66;5033101;28;20217;-70
2022/11/16 01:16:58;;;;;;;9.40;4.10;;;;;;;14.11;64.15;96162.59;5029016;28;20434;-70
2022/11/16 01:19:24;;;;;;;4.70;4.17;;;;;;;14.17;64.46;96171.53;5022867;28;20215;-69
2022/11/16 01:21:49;;;;;;;7.00;4.83;;;;;;;14.11;64.11;96151.28;5038259;28;20433;-70
2022/11/16 01:24:15;;;;;;;4.80;4.27;;;;;;;14.07;64.07;96158.75;5031004;28;20192;-69
2022/11/16 01:26:40;;;;;;;8.80;4.27;;;;;;;14.04;64.82;96158.34;5031726;28;20711;-71
2022/11/16 01:29:06;;;;;;;6.67;4.07;;;;;;;14.06;64.90;96151.06;5029242;28;20186;-70
2022/11/16 01:31:31;;;;;;;7.33;4.47;;;;;;;14.03;65.35;96159.34;5031063;28;20698;-71
2022/11/16 01:33:57;;;;;;;4.63;3.63;;;;;;;14.07;65.06;96163.22;5027506;28;20307;-70
2022/11/16 01:36:22;;;;;;;5.50;3.90;;;;;;;14.03;64.69;96168.06;5029798;28;20212;-70
2022/11/16 01:38:49;;;;;;;6.23;4.23;;;;;;;13.96;64.83;96149.63;5031029;28;20250;-71
2022/11/16 01:41:17;;;;;;;5.50;4.37;;;;;;;13.95;65.15;96152.44;5035133;28;20453;-71
2022/11/16 01:44:01;;;;;;;4.30;3.90;;;;;;;13.94;65.13;96156.06;5031056;28;20419;-71
2022/11/16 01:46:27;;;;;;;7.87;3.97;;;;;;;13.95;64.49;96150.63;5023248;28;20449;-71
2022/11/16 01:48:58;;;;;;;4.67;3.70;;;;;;;14.02;64.47;96141.91;5030877;28;20972;-70
2022/11/16 01:51:24;;;;;;;3.80;3.50;;;;;;;14.03;64.27;96146.16;5029259;28;20489;-71
2022/11/16 01:53:50;;;;;;;5.10;3.63;;;;;;;14.01;64.28;96142.91;5029576;28;20422;-71
2022/11/16 01:56:15;;;;;;;5.53;3.63;;;;;;;14.00;64.62;96142.13;5012634;28;20215;-70
2022/11/16 01:58:41;;;;;;;4.73;3.70;;;;;;;13.96;64.43;96141.72;5027193;28;20200;-70
2022/11/16 02:01:06;;;;;;;6.50;4.10;;;;;;;13.97;64.60;96145.16;5028941;28;20690;-71
2022/11/16 02:03:32;;;;;;;4.43;3.83;;;;;;;13.89;64.37;96148.78;5029333;28;20187;-70
2022/11/16 02:06:15;;;;;;;8.50;4.07;;;;;;;13.92;64.68;96143.13;5030076;28;20223;-70
2022/11/16 02:12:07;;;;;;;6.33;3.83;;;;;;;13.70;65.33;96145.06;5023215;28;20925;-71
2022/11/16 02:14:48;;;;;;;4.17;3.77;;;;;;;13.81;65.33;96141.88;5032313;28;20415;-71
2022/11/16 02:17:31;;;;;;;5.87;4.10;;;;;;;13.75;65.60;96142.69;5027914;28;20426;-71
2022/11/16 02:20:14;;;;;;;5.50;3.80;;;;;;;13.76;65.30;96149.56;5037415;28;20462;-69
2022/11/16 02:23:04;;;;;;;5.30;3.57;;;;;;;13.72;65.27;96150.97;5023731;28;20450;-71
2022/11/16 02:26:15;;;;;;;7.40;4.90;;;;;;;13.81;65.42;96146.34;5004806;28;20446;-71
2022/11/16 02:29:18;;;;;;;14.33;5.90;;;;;;;13.86;65.63;96133.38;4998832;28;20442;-71
2022/11/16 02:32:06;;;;;;;5.70;4.50;;;;;;;13.91;65.81;96141.50;5025503;28;20406;-71
2022/11/16 02:34:53;;;;;;;3.47;3.00;;;;;;;13.89;65.17;96140.06;5021544;28;20441;-70
2022/11/16 02:37:22;;;;;;;5.83;3.80;;;;;;;13.96;65.58;96133.00;5030082;28;20454;-72
2022/11/16 02:39:51;;;;;;;3.80;3.43;;;;;;;13.96;65.34;96127.72;5026812;28;20515;-70
2022/11/16 02:42:22;;;;;;;4.00;3.33;;;;;;;14.01;65.33;96135.03;5025669;28;20437;-71
2022/11/16 02:44:50;;;;;;;4.60;3.60;;;;;;;13.88;65.53;96131.34;5023238;28;20433;-71
2022/11/16 02:47:19;;;;;;;5.07;3.60;;;;;;;13.92;66.02;96126.50;5013573;28;20430;-70
2022/11/16 02:49:51;;;;;;;4.87;3.30;;;;;;;13.95;66.01;96126.94;5029010;28;20455;-71
2022/11/16 02:52:17;;;;;;;5.10;3.30;;;;;;;13.96;66.02;96122.44;5028279;28;20491;-70
2022/11/16 02:54:42;;;;;;;4.30;3.30;;;;;;;13.96;66.27;96122.44;5028844;28;20505;-71
2022/11/16 02:57:08;;;;;;;4.87;3.20;;;;;;;13.97;66.32;96127.53;5025157;28;20999;-70
2022/11/16 02:59:48;;;;;;;4.87;3.10;;;;;;;14.02;66.31;96126.09;5040011;28;20206;-70
2022/11/16 03:02:34;;;;;;;4.63;3.10;;;;;;;13.97;66.36;96134.63;5030584;28;20236;-70
2022/11/16 03:05:03;;;;;;;3.60;2.97;;;;;;;14.04;66.14;96132.00;5026186;28;20984;-71
2022/11/16 03:07:32;;;;;;;4.23;3.10;;;;;;;14.02;65.97;96129.56;5028327;28;20422;-69
2022/11/16 03:09:59;;;;;;;3.60;2.63;;;;;;;13.96;66.32;96122.44;5028928;28;20430;-71
2022/11/16 03:12:28;;;;;;;3.70;2.97;;;;;;;13.95;66.66;96124.28;5006839;28;21077;-70
2022/11/16 03:15:02;;;;;;;4.57;2.93;;;;;;;13.98;66.58;96120.44;5019974;28;20456;-70
2022/11/16 03:17:35;;;;;;;3.60;2.87;;;;;;;13.98;66.58;96113.38;5031259;28;20422;-71
2022/11/16 03:20:08;;;;;;;6.10;3.27;;;;;;;13.97;66.70;96109.09;5012646;28;20454;-71
2022/11/16 03:22:35;;;;;;;3.10;2.50;;;;;;;14.02;66.68;96110.31;5030847;28;20575;-70
2022/11/16 03:25:01;;;;;;;3.07;2.60;;;;;;;14.01;66.81;96104.25;5034329;28;20896;-71
2022/11/16 03:27:38;;;;;;;3.50;2.60;;;;;;;14.02;66.67;96107.66;5016026;28;20825;-71
2022/11/16 03:30:13;;;;;;;3.40;2.60;;;;;;;14.05;67.02;96107.28;5029216;28;20418;-69
2022/11/16 03:32:51;;;;;;;2.73;2.20;;;;;;;14.08;66.82;96106.88;5033090;28;20422;-71
2022/11/16 03:35:21;;;;;;;2.73;2.40;;;;;;;14.10;66.87;96102.22;5033022;28;20437;-72
2022/11/16 03:37:48;;;;;;;3.20;2.50;;;;;;;14.10;66.87;96102.22;5032419;28;20431;-72
2022/11/16 03:40:14;;;;;;;3.70;2.60;;;;;;;14.08;67.05;96097.13;5031867;28;20931;-70
2022/11/16 03:42:41;;;;;;;5.03;2.60;;;;;;;14.10;67.14;96102.22;5037552;28;20793;-70
2022/11/16 03:45:07;;;;;;;4.43;2.87;;;;;;;14.08;66.75;96099.78;5031622;28;20867;-70
2022/11/16 03:47:32;;;;;;;4.77;2.40;;;;;;;13.97;67.00;96093.31;5031085;28;20426;-72
2022/11/16 03:49:58;;;;;;;2.73;2.20;;;;;;;13.91;66.91;96090.66;5033278;28;20931;-71
2022/11/16 03:52:23;;;;;;;3.40;2.70;;;;;;;13.80;67.38;96089.41;5032717;28;20215;-70
2022/11/16 03:54:49;;;;;;;2.80;2.53;;;;;;;13.77;67.73;96089.81;4998890;28;20186;-72
2022/11/16 03:57:17;;;;;;;3.90;3.00;;;;;;;13.85;67.62;96101.97;5030980;28;20693;-70
2022/11/16 03:59:43;;;;;;;5.27;3.20;;;;;;;13.89;67.76;96117.16;5032926;28;20261;-70
2022/11/16 04:02:14;;;;;;;2.90;2.70;;;;;;;13.89;67.66;96122.44;5031214;28;20435;-70
2022/11/16 04:24:11;;;;;;;3.43;3.13;;;;;;;13.98;67.72;96152.88;5046573;28;20461;-70
2022/11/16 04:29:21;;;;;;;3.73;3.10;;;;;;;13.97;68.21;96153.88;5041041;28;20438;-72
2022/11/16 04:40:02;;;;;;;2.30;2.10;;;;;;;14.01;68.48;96162.19;5044409;28;20466;-70
2022/11/16 04:42:27;;;;;;;2.53;2.10;;;;;;;13.98;68.61;96163.41;5037065;28;20428;-71
2022/11/16 04:47:36;;;;;;;2.57;2.30;;;;;;;14.05;68.51;96160.75;5035165;28;20192;-71
2022/11/16 04:50:03;;;;;;;2.33;2.10;;;;;;;14.07;68.27;96161.38;5046107;28;20929;-71
2022/11/16 04:52:28;;;;;;;2.83;2.20;;;;;;;14.08;68.33;96157.72;5036728;28;20269;-71
2022/11/16 04:54:54;;;;;;;2.53;2.33;;;;;;;14.12;68.52;96153.69;5042277;28;20544;-72
2022/11/16 04:57:19;;;;;;;2.83;2.53;;;;;;;14.16;67.89;96145.41;5007932;28;20180;-72
2022/11/16 04:59:45;;;;;;;3.30;2.33;;;;;;;14.19;68.12;96137.91;5046931;28;20218;-71
2022/11/16 05:02:10;;;;;;;3.30;2.60;;;;;;;14.17;68.10;96134.66;5044298;28;20270;-70
2022/11/16 05:04:38;;;;;;;5.80;2.93;;;;;;;14.17;68.49;96144.38;5026524;28;20202;-71
2022/11/16 05:07:09;;;;;;;2.90;2.70;;;;;;;14.18;68.03;96151.25;5045314;28;20236;-71
2022/11/16 05:09:40;;;;;;;3.20;2.80;;;;;;;14.19;68.09;96143.16;5038826;28;20422;-70
2022/11/16 05:12:06;;;;;;;4.80;2.67;;;;;;;14.18;68.13;96138.06;5046827;28;20515;-70
2022/11/16 05:14:32;;;;;;;5.57;3.07;;;;;;;14.21;68.33;96130.59;5034689;28;20425;-71
2022/11/16 05:16:57;;;;;;;2.60;2.40;;;;;;;14.23;67.96;96139.13;5021263;28;20534;-70
2022/11/16 05:22:07;;;;;;;4.17;3.43;;;;;;;14.22;68.06;96152.47;5045213;28;20191;-71
2022/11/16 05:24:32;;;;;;;3.70;3.07;;;;;;;14.22;68.20;96150.69;5041596;28;20798;-71
2022/11/16 05:26:59;;;;;;;3.27;2.97;;;;;;;14.24;67.69;96159.16;5043201;28;20190;-72
2022/11/16 05:29:24;;;;;;;4.03;3.20;;;;;;;14.26;67.89;96153.72;5037329;28;20641;-71
2022/11/16 05:31:50;;;;;;;3.53;2.47;;;;;;;14.24;68.00;96158.38;5030872;28;20423;-72
2022/11/16 05:34:15;;;;;;;3.13;2.83;;;;;;;14.23;67.84;96154.09;5027156;28;20287;-72
2022/11/16 05:36:41;;;;;;;3.70;3.10;;;;;;;14.29;67.70;96154.13;5035834;28;20270;-72
2022/11/16 05:39:06;;;;;;;4.00;3.07;;;;;;;14.26;67.68;96146.59;5034777;28;20211;-71
2022/11/16 05:41:32;;;;;;;2.73;2.23;;;;;;;14.27;67.88;96153.50;5034162;28;20688;-71
2022/11/16 05:43:58;;;;;;;2.83;2.60;;;;;;;14.29;67.54;96158.59;5043613;28;20192;-71
2022/11/16 05:46:23;;;;;;;3.60;2.37;;;;;;;14.28;67.60;96160.41;5025361;28;21836;-71
2022/11/16 05:48:49;;;;;;;3.37;2.70;;;;;;;14.22;67.62;96163.03;5037035;28;20218;-72
2022/11/16 05:51:15;;;;;;;5.10;2.77;;;;;;;14.13;67.71;96168.50;5040761;28;20186;-72
2022/11/16 05:53:40;;;;;;;6.33;5.13;;;;;;;14.10;68.09;96157.53;5034710;28;20756;-72
2022/11/16 05:56:06;;;;;;;22.67;17.13;;;;;;;14.09;68.29;96158.56;5038780;28;20694;-70
2022/11/16 05:58:31;;;;;;;62.03;43.10;;;;;;;14.06;68.22;96156.31;5048833;28;20289;-73
2022/11/16 06:00:57;;;;;;;60.57;41.77;;;;;;;14.05;68.27;96152.84;5019630;28;20587;-71
2022/11/16 06:03:22;;;;;;;24.00;17.60;;;;;;;14.07;68.21;96150.03;5025279;28;20192;-72
2022/11/16 06:05:52;;;;;;;13.30;10.40;;;;;;;13.98;68.28;96152.88;5025358;28;20219;-71
2022/11/16 06:08:18;;;;;;;47.17;32.37;;;;;;;13.97;68.32;96145.97;5020747;28;20568;-71
2022/11/16 06:10:43;;;;;;;48.97;34.70;;;;;;;13.95;68.64;96155.91;5038496;28;20521;-72
2022/11/16 06:13:08;;;;;;;28.93;18.57;;;;;;;13.92;68.31;96161.56;5029718;28;20849;-70
2022/11/16 06:15:37;;;;;;;38.63;26.70;;;;;;;13.92;68.54;96163.38;5033919;28;20206;-71
2022/11/16 06:18:03;;;;;;;27.27;18.40;;;;;;;13.92;68.68;96169.44;5031230;28;20215;-70
2022/11/16 06:20:28;;;;;;;13.13;8.90;;;;;;;13.90;68.79;96162.78;5035188;28;20800;-71
2022/11/16 06:22:53;;;;;;;6.20;4.80;;;;;;;13.95;68.54;96186.66;5038171;28;20185;-72
2022/11/16 06:25:19;;;;;;;4.37;3.70;;;;;;;14.02;68.33;96176.16;5032889;28;20203;-71
2022/11/16 06:27:44;;;;;;;3.33;3.03;;;;;;;13.98;68.37;96187.13;5043225;28;20693;-70
2022/11/16 06:30:10;;;;;;;3.50;3.20;;;;;;;13.93;68.29;96184.25;5024745;28;20191;-71
2022/11/16 06:32:35;;;;;;;4.27;3.20;;;;;;;13.95;68.56;96179.59;5037248;28;20194;-71
2022/11/16 06:35:01;;;;;;;5.27;4.33;;;;;;;13.97;68.56;96185.50;5037527;28;20215;-70
2022/11/16 06:37:26;;;;;;;4.73;4.20;;;;;;;14.02;68.38;96191.97;5032836;28;20662;-71
2022/11/16 06:39:52;;;;;;;4.63;3.83;;;;;;;14.01;68.35;96185.06;5042792;28;20279;-72
2022/11/16 06:42:17;;;;;;;6.73;4.17;;;;;;;14.06;67.96;96195.84;5028340;28;20323;-72
2022/11/16 06:44:42;;;;;;;5.00;4.10;;;;;;;14.06;68.05;96201.09;5037429;28;20269;-71
2022/11/16 06:47:08;;;;;;;4.33;3.93;;;;;;;14.06;67.79;96199.25;5018875;28;20184;-71
2022/11/16 06:49:33;;;;;;;4.17;3.63;;;;;;;14.07;67.96;96200.09;5031884;28;20244;-71
2022/11/16 06:51:59;;;;;;;5.27;3.57;;;;;;;14.07;68.05;96202.72;5049841;28;20234;-74
2022/11/16 06:54:24;;;;;;;3.83;2.80;;;;;;;14.08;67.95;96204.34;5026321;28;20201;-72
2022/11/16 06:56:50;;;;;;;5.37;3.10;;;;;;;14.06;67.88;96211.63;5037623;28;20332;-72
2022/11/16 06:59:15;;;;;;;3.00;2.20;;;;;;;14.04;68.09;96209.22;5043426;28;20200;-70
2022/11/16 07:01:41;;;;;;;5.13;2.57;;;;;;;14.06;68.15;96211.63;5039086;28;20279;-74
2022/11/16 07:04:10;;;;;;;2.87;2.60;;;;;;;14.06;68.32;96215.06;5028611;28;20531;-72
2022/11/16 07:06:39;;;;;;;3.10;2.30;;;;;;;14.07;68.35;96216.69;5031178;28;20507;-72
2022/11/16 07:09:08;;;;;;;2.83;2.50;;;;;;;14.07;68.22;96223.81;5029539;28;20423;-71
2022/11/16 07:11:34;;;;;;;2.30;2.10;;;;;;;14.05;68.43;96215.28;5029993;28;20424;-73
2022/11/16 07:14:00;;;;;;;3.10;2.30;;;;;;;14.06;68.65;96227.44;5030034;28;20942;-72
2022/11/16 07:16:25;;;;;;;2.33;2.13;;;;;;;14.05;68.58;96231.09;5042301;28;20445;-71
2022/11/16 07:18:51;;;;;;;2.30;2.10;;;;;;;14.09;68.54;96234.97;5033619;28;20208;-72
2022/11/16 07:21:17;;;;;;;2.90;2.20;;;;;;;14.08;68.54;96239.41;5026584;28;20185;-71
2022/11/16 07:23:42;;;;;;;3.07;2.30;;;;;;;14.05;68.62;96252.16;5030573;28;20263;-71
2022/11/16 07:26:08;;;;;;;2.50;2.30;;;;;;;14.09;67.86;96248.13;5011096;28;20212;-72
2022/11/16 07:28:34;;;;;;;3.10;2.40;;;;;;;14.09;68.18;96248.13;5026700;28;20172;-71
2022/11/16 07:31:01;;;;;;;2.87;2.10;;;;;;;14.12;67.84;96247.72;5026992;28;20457;-71
2022/11/16 07:33:27;;;;;;;2.23;1.70;;;;;;;14.03;66.84;96241.00;5028518;28;20604;-71
2022/11/16 07:35:52;;;;;;;10.00;2.00;;;;;;;14.05;66.67;96244.25;5033320;28;20430;-71
2022/11/16 07:38:18;;;;;;;4.17;1.67;;;;;;;14.09;66.75;96253.41;5031188;28;20566;-70
2022/11/16 07:40:44;;;;;;;2.07;1.50;;;;;;;14.09;66.50;96253.41;5029209;28;20266;-71
2022/11/16 07:43:11;;;;;;;1.83;1.23;;;;;;;14.11;66.53;96254.81;5030169;28;20562;-71
2022/11/16 07:45:37;;;;;;;3.00;1.33;;;;;;;14.15;66.13;96259.69;5027236;28;20509;-71
2022/11/16 07:48:02;;;;;;;1.30;1.10;;;;;;;14.13;65.84;96254.59;5032826;28;20956;-71
2022/11/16 07:50:28;;;;;;;4.60;1.30;;;;;;;14.14;65.38;96258.88;5028640;28;20172;-72
2022/11/16 07:52:54;;;;;;;2.13;1.40;;;;;;;14.15;65.41;96265.75;5045686;28;20258;-70
2022/11/16 07:55:20;;;;;;;3.63;1.00;;;;;;;14.11;65.15;96268.00;5028775;28;20199;-71
2022/11/16 07:57:45;;;;;;;3.67;1.00;;;;;;;14.14;65.03;96266.78;5043776;28;20451;-71
2022/11/16 08:00:11;;;;;;;1.27;1.00;;;;;;;14.19;65.03;96264.38;5047834;28;20218;-72
2022/11/16 08:02:36;;;;;;;1.30;1.03;;;;;;;14.22;64.97;96271.06;5041736;28;20184;-71
2022/11/16 08:05:02;;;;;;;2.00;1.00;;;;;;;14.13;64.24;96271.25;5047184;28;20625;-71
2022/11/16 08:07:27;;;;;;;2.00;1.20;;;;;;;14.20;64.54;96275.72;5044592;28;20179;-71
2022/11/16 08:09:53;;;;;;;1.30;1.00;;;;;;;14.19;64.56;96276.72;5039609;28;20182;-71
2022/11/16 08:12:18;;;;;;;2.83;1.20;;;;;;;14.27;64.84;96276.56;5037157;28;20239;-71
2022/11/16 08:14:44;;;;;;;3.83;1.10;;;;;;;14.38;64.84;96270.72;5037500;28;20262;-72
2022/11/16 08:17:09;;;;;;;1.60;1.27;;;;;;;14.50;65.06;96264.84;5047664;28;20266;-72
2022/11/16 08:19:35;;;;;;;3.67;1.50;;;;;;;14.62;65.32;96273.78;5042195;28;20544;-72
2022/11/16 08:22:01;;;;;;;1.40;1.10;;;;;;;14.70;65.11;96270.19;5046864;28;20194;-72
2022/11/16 08:24:27;;;;;;;3.10;0.97;;;;;;;14.75;65.36;96267.72;5045708;28;20194;-72
2022/11/16 08:26:53;;;;;;;3.40;1.27;;;;;;;14.82;64.28;96267.75;5044788;28;20441;-72
2022/11/16 08:29:18;;;;;;;2.50;1.30;;;;;;;15.11;64.84;96274.47;5044471;28;20187;-71
2022/11/16 08:31:44;;;;;;;1.73;1.20;;;;;;;15.35;64.22;96264.28;5040498;28;20422;-72
2022/11/16 08:34:09;;;;;;;2.27;0.90;;;;;;;15.37;62.42;96264.91;5049848;28;20197;-71
2022/11/16 08:36:35;;;;;;;1.77;1.00;;;;;;;15.39;61.82;96268.13;5042295;28;20559;-72
2022/11/16 08:39:00;;;;;;;2.90;1.50;;;;;;;15.36;62.06;96271.19;5038485;28;20616;-72
2022/11/16 08:41:26;;;;;;;1.90;1.37;;;;;;;15.39;62.50;96259.41;5039336;28;20263;-72
2022/11/16 08:43:52;;;;;;;5.13;1.43;;;;;;;15.43;62.60;96269.34;5046498;28;20175;-71
2022/11/16 08:46:18;;;;;;;3.10;1.40;;;;;;;15.43;61.33;96274.63;5022574;28;20210;-71
2022/11/16 08:48:44;;;;;;;2.20;1.20;;;;;;;15.44;61.57;96281.53;5042770;28;20787;-71
2022/11/16 08:51:13;;;;;;;4.47;1.10;;;;;;;15.42;61.27;96288.84;5028073;28;20431;-71
2022/11/16 08:53:38;;;;;;;2.60;1.10;;;;;;;15.39;60.87;96289.25;5047274;28;20426;-71
2022/11/16 08:56:10;;;;;;;1.20;0.90;;;;;;;15.29;60.56;96286.22;5041542;28;20453;-70
2022/11/16 08:58:36;;;;;;;3.23;1.43;;;;;;;15.26;60.44;96289.25;5029350;28;20593;-71
2022/11/16 09:01:09;;;;;;;4.57;1.40;;;;;;;15.26;60.33;96289.25;5042525;28;20433;-72
2022/11/16 09:03:36;;;;;;;4.97;1.20;;;;;;;15.25;60.45;96282.38;5029577;28;20203;-71
2022/11/16 09:06:02;;;;;;;4.60;1.30;;;;;;;15.23;60.95;96297.59;5045830;28;20953;-72
2022/11/16 09:08:27;;;;;;;4.50;1.03;;;;;;;15.22;61.32;96290.69;5043988;28;20420;-73
2022/11/16 09:10:52;;;;;;;4.77;1.20;;;;;;;15.19;60.95;96287.44;5040267;28;20172;-72
2022/11/16 09:13:18;;;;;;;2.70;1.10;;;;;;;15.27;60.81;96285.59;5030658;28;20646;-72
2022/11/16 09:15:44;;;;;;;2.37;1.20;;;;;;;15.55;60.51;96287.19;5043631;28;20244;-71
2022/11/16 09:18:09;;;;;;;1.20;1.00;;;;;;;15.78;60.16;96287.53;5038905;28;20210;-71
2022/11/16 09:20:35;;;;;;;7.10;1.40;;;;;;;16.10;59.89;96278.91;5035603;28;20175;-71
2022/11/16 09:23:00;;;;;;;2.33;1.20;;;;;;;16.23;59.05;96288.63;5044376;28;20599;-72
2022/11/16 09:25:26;;;;;;;3.60;1.40;;;;;;;16.19;58.53;96290.06;5043115;28;20226;-72
2022/11/16 09:27:54;;;;;;;1.93;1.60;;;;;;;16.09;59.37;96283.41;5046676;28;20748;-71
2022/11/16 09:30:20;;;;;;;1.73;1.50;;;;;;;16.06;59.21;96289.09;5043247;28;20183;-72
2022/11/16 09:32:45;;;;;;;2.17;1.33;;;;;;;16.04;59.72;96291.16;5048245;28;20961;-72
2022/11/16 09:35:10;;;;;;;4.73;1.63;;;;;;;16.17;59.52;96292.94;5043085;28;20709;-72
2022/11/16 09:37:36;;;;;;;4.10;3.40;;;;;;;16.06;58.97;96299.69;5034979;28;20206;-71
2022/11/16 09:40:02;;;;;;;4.90;2.50;;;;;;;16.08;58.82;96297.63;5044051;28;20715;-72
2022/11/16 09:42:58;;;;;;;2.83;1.20;;;;;;;15.96;58.81;96297.47;5036484;28;20751;-71
2022/11/16 09:45:33;;;;;;;3.80;1.50;;;;;;;15.91;58.19;96307.03;5044108;28;20455;-71
2022/11/16 09:48:02;;;;;;;3.07;1.57;;;;;;;15.86;58.84;96309.50;5042349;28;20428;-70
2022/11/16 09:50:46;;;;;;;4.30;1.57;;;;;;;15.81;59.85;96291.63;5034073;28;20448;-74
2022/11/16 09:53:36;;;;;;;1.60;1.43;;;;;;;15.79;59.67;96302.38;5046529;28;20489;-71
2022/11/16 09:56:05;;;;;;;3.20;1.33;;;;;;;15.85;59.74;96302.59;5037019;28;20808;-71
2022/11/16 09:58:59;;;;;;;2.60;1.20;;;;;;;15.87;59.00;96295.28;5027407;28;20463;-71
2022/11/16 10:01:50;;;;;;;1.40;0.90;;;;;;;16.59;58.52;96295.16;5043410;28;20520;-72
2022/11/16 10:04:23;;;;;;;1.67;1.00;;;;;;;17.16;56.46;96291.72;5039577;28;20478;-71
2022/11/16 10:06:58;;;;;;;1.43;0.90;;;;;;;17.20;55.85;96298.22;5045243;28;20464;-70
2022/11/16 10:09:24;;;;;;;1.10;0.90;;;;;;;17.18;54.90;96297.63;5040189;28;20917;-71
2022/11/16 10:12:13;;;;;;;1.30;0.90;;;;;;;17.07;55.34;96293.84;5045506;28;20422;-71
2022/11/16 10:15:05;;;;;;;3.63;1.27;;;;;;;17.15;56.38;96292.75;5036400;28;20422;-71
2022/11/16 10:17:52;;;;;;;1.53;0.93;;;;;;;17.13;55.43;96292.97;5035030;28;20406;-72
2022/11/16 10:20:38;;;;;;;3.20;1.37;;;;;;;16.96;55.32;96295.34;5032688;28;20503;-70
2022/11/16 10:23:11;;;;;;;2.17;1.23;;;;;;;17.13;55.63;96297.47;5042963;28;20446;-70
2022/11/16 10:25:44;;;;;;;1.77;1.00;;;;;;;17.03;55.58;96288.16;5043115;28;20438;-72
2022/11/16 10:28:39;;;;;;;3.93;1.03;;;;;;;16.86;55.33;96284.41;5043657;28;20517;-69
2022/11/16 10:31:41;;;;;;;1.20;0.83;;;;;;;16.80;56.11;96274.66;4992755;28;20475;-69
2022/11/16 10:34:08;;;;;;;1.70;1.03;;;;;;;16.78;56.22;96277.53;5046043;28;20425;-71
2022/11/16 10:36:36;;;;;;;2.37;1.10;;;;;;;16.80;55.72;96269.38;5039860;28;20871;-70
2022/11/16 10:39:01;;;;;;;3.57;1.00;;;;;;;16.79;56.32;96270.41;5039945;28;20457;-71
2022/11/16 10:41:39;;;;;;;5.93;1.20;;;;;;;16.76;56.01;96266.34;5031447;28;20432;-72
2022/11/16 10:44:13;;;;;;;2.13;1.00;;;;;;;16.82;56.54;96260.19;5040755;28;20228;-70
2022/11/16 10:46:43;;;;;;;1.60;1.23;;;;;;;16.86;55.83;96261.38;5040847;28;21044;-71
2022/11/16 10:49:17;;;;;;;1.60;1.00;;;;;;;17.11;55.93;96262.47;5040124;28;20777;-72
2022/11/16 10:51:42;;;;;;;2.40;1.30;;;;;;;17.59;56.18;96253.84;5030379;28;20413;-72
2022/11/16 10:54:15;;;;;;;1.10;0.90;;;;;;;18.18;54.44;96252.59;5042828;28;20422;-72
2022/11/16 10:56:44;;;;;;;2.73;1.13;;;;;;;18.54;52.13;96242.91;5041427;28;20198;-71
2022/11/16 10:59:19;;;;;;;1.27;0.80;;;;;;;18.88;50.73;96241.38;5044454;28;20871;-71
2022/11/16 11:01:56;;;;;;;6.30;1.10;;;;;;;19.18;49.59;96237.03;5037166;28;20443;-70
2022/11/16 11:04:23;;;;;;;3.10;1.13;;;;;;;19.09;48.83;96233.91;5038771;28;20959;-71
2022/11/16 11:06:56;;;;;;;1.80;0.87;;;;;;;19.30;47.97;96231.72;5044223;28;20445;-71
2022/11/16 11:09:22;;;;;;;1.50;1.00;;;;;;;19.76;47.58;96222.06;5039320;28;20678;-72
2022/11/16 11:14:57;;;;;;;2.27;1.00;;;;;;;20.01;45.63;96236.13;5033481;28;20215;-71
2022/11/16 11:17:23;;;;;;;2.53;1.00;;;;;;;19.99;46.02;96228.41;5036661;28;20430;-71
2022/11/16 11:19:59;;;;;;;2.17;0.90;;;;;;;19.64;43.49;96229.25;5027747;28;20470;-71
2022/11/16 11:22:25;;;;;;;1.50;0.83;;;;;;;19.78;43.18;96225.28;5043731;28;20179;-71
2022/11/16 11:24:51;;;;;;;2.13;1.17;;;;;;;19.84;43.70;96220.09;5038230;28;20564;-72
2022/11/16 11:27:25;;;;;;;1.50;0.83;;;;;;;20.19;43.10;96213.84;5044407;28;20803;-70
2022/11/16 11:29:57;;;;;;;1.83;1.03;;;;;;;20.61;43.39;96215.38;5010524;28;20547;-72
2022/11/16 11:32:26;;;;;;;3.50;1.03;;;;;;;20.78;41.16;96212.78;5029937;28;20421;-71
2022/11/16 11:34:52;;;;;;;4.40;0.90;;;;;;;20.63;42.05;96214.13;5042206;28;20427;-71
2022/11/16 11:37:22;;;;;;;0.90;0.70;;;;;;;20.51;42.49;96205.38;5040835;28;20799;-72
2022/11/16 11:40:04;;;;;;;1.53;0.80;;;;;;;20.80;42.62;96203.50;5046790;28;20488;-72
2022/11/16 11:42:29;;;;;;;2.37;0.90;;;;;;;21.19;42.34;96210.72;5041078;28;20424;-71
2022/11/16 11:45:05;;;;;;;1.60;0.80;;;;;;;21.49;41.17;96214.88;5047439;28;20426;-72
2022/11/16 11:47:43;;;;;;;4.00;1.00;;;;;;;21.82;41.58;96207.84;5029964;28;20596;-71
2022/11/16 11:50:26;;;;;;;1.30;0.70;;;;;;;21.76;38.74;96214.19;5032728;28;20441;-71
2022/11/16 11:53:18;;;;;;;3.33;0.90;;;;;;;21.46;38.62;96212.69;5040824;28;21026;-71
2022/11/16 11:55:44;;;;;;;2.80;0.90;;;;;;;21.27;38.94;96210.31;5043784;28;20454;-71
2022/11/16 11:58:15;;;;;;;2.07;0.80;;;;;;;20.95;39.51;96216.22;5048541;28;20429;-70
2022/11/16 12:00:51;;;;;;;1.37;0.70;;;;;;;20.62;39.55;96215.16;5045942;28;20187;-72
2022/11/16 12:03:42;;;;;;;1.10;0.70;;;;;;;20.23;39.58;96209.69;5042378;28;20517;-71
2022/11/16 12:06:34;;;;;;;1.10;0.73;;;;;;;20.02;39.84;96213.81;5044964;28;20512;-71
2022/11/16 12:09:07;;;;;;;1.40;0.70;;;;;;;19.88;39.85;96207.97;5039765;28;20445;-71
2022/11/16 12:11:45;;;;;;;2.50;0.80;;;;;;;19.82;40.24;96208.88;5040256;28;20562;-71
2022/11/16 12:14:41;;;;;;;2.30;0.73;;;;;;;20.07;40.45;96205.94;5038190;28;20449;-72
2022/11/16 12:17:27;;;;;;;1.77;0.80;;;;;;;20.33;39.10;96191.25;5048620;28;20441;-70
2022/11/16 12:20:05;;;;;;;3.10;0.80;;;;;;;20.37;38.28;96196.88;5029329;28;20573;-71
2022/11/16 12:22:49;;;;;;;2.97;1.00;;;;;;;20.08;37.34;96196.94;5038804;28;20421;-72
2022/11/16 12:25:36;;;;;;;5.10;1.10;;;;;;;20.03;37.69;96204.78;5041761;28;20537;-72
2022/11/16 12:28:10;;;;;;;2.67;0.80;;;;;;;19.28;38.67;96191.31;5028807;28;20419;-72